createdAt,value
2018-10-09T00:00:33.509Z,15.23
2018-10-09T00:03:03.341Z,17.67
2018-10-09T00:05:33.250Z,15.93
2018-10-09T00:08:03.174Z,16.90
2018-10-09T00:10:33.476Z,22.20
2018-10-09T00:13:03.402Z,16.30
2018-10-09T00:15:34.294Z,18.50
2018-10-09T00:18:04.295Z,18.53
2018-10-09T00:20:34.021Z,19.93
2018-10-09T00:23:04.744Z,18.57
2018-10-09T00:25:34.718Z,14.97
2018-10-09T00:28:05.514Z,16.03
2018-10-09T00:30:35.341Z,17.17
2018-10-09T00:33:05.106Z,15.33
2018-10-09T00:35:34.823Z,18.90
2018-10-09T00:38:04.997Z,15.10
2018-10-09T00:40:35.029Z,24.50
2018-10-09T00:43:04.855Z,18.63
2018-10-09T00:45:34.586Z,18.97
2018-10-09T00:48:04.484Z,21.00
2018-10-09T00:50:34.614Z,16.63
2018-10-09T00:53:04.611Z,20.70
2018-10-09T00:55:34.465Z,18.37
2018-10-09T00:58:05.180Z,18.37
2018-10-09T01:00:35.275Z,17.97
2018-10-09T01:03:05.116Z,16.87
2018-10-09T01:05:35.050Z,17.50
2018-10-09T01:08:04.914Z,17.53
2018-10-09T01:10:35.354Z,17.80
2018-10-09T01:13:05.647Z,17.40
2018-10-09T01:15:35.475Z,20.20
2018-10-09T01:18:06.343Z,18.57
2018-10-09T01:20:36.354Z,18.17
2018-10-09T01:23:07.029Z,17.63
2018-10-09T01:25:37.297Z,19.57
2018-10-09T01:28:07.811Z,22.37
2018-10-09T01:30:37.750Z,17.80
2018-10-09T01:33:07.990Z,15.27
2018-10-09T01:35:37.765Z,16.83
2018-10-09T01:38:07.685Z,20.63
2018-10-09T01:40:37.440Z,16.07
2018-10-09T01:43:08.098Z,19.43
2018-10-09T01:45:38.050Z,15.37
2018-10-09T01:48:08.069Z,20.97
2018-10-09T01:50:37.773Z,19.97
2018-10-09T01:53:07.813Z,16.57
2018-10-09T01:55:37.627Z,16.27
2018-10-09T01:58:07.524Z,21.07
2018-10-09T02:00:37.527Z,17.57
2018-10-09T02:03:07.886Z,17.67
2018-10-09T02:05:37.704Z,19.07
2018-10-09T02:08:07.804Z,20.97
2018-10-09T02:10:38.205Z,16.83
2018-10-09T02:13:07.963Z,18.77
2018-10-09T02:15:37.939Z,18.30
2018-10-09T02:18:07.990Z,17.50
2018-10-09T02:20:38.800Z,19.80
2018-10-09T02:23:08.649Z,19.93
2018-10-09T02:25:38.415Z,18.40
2018-10-09T02:28:08.868Z,16.60
2018-10-09T02:30:38.739Z,20.00
2018-10-09T02:33:09.279Z,18.53
2018-10-09T02:35:39.237Z,20.67
2018-10-09T02:38:09.291Z,17.10
2018-10-09T02:40:39.723Z,19.07
2018-10-09T02:43:09.482Z,19.80
2018-10-09T02:45:39.181Z,19.37
2018-10-09T02:48:09.154Z,20.43
2018-10-09T02:50:39.630Z,17.77
2018-10-09T02:53:09.500Z,18.47
2018-10-09T02:55:39.228Z,15.33
2018-10-09T02:58:09.558Z,18.00
2018-10-09T03:00:40.012Z,18.73
2018-10-09T03:03:09.728Z,17.90
2018-10-09T03:05:39.542Z,20.23
2018-10-09T03:08:09.320Z,21.00
2018-10-09T03:10:39.143Z,22.53
2018-10-09T03:13:09.194Z,20.00
2018-10-09T03:15:38.850Z,21.03
2018-10-09T03:18:08.663Z,18.90
2018-10-09T03:20:38.484Z,23.97
2018-10-09T03:23:08.290Z,23.53
2018-10-09T03:25:38.013Z,19.57
2018-10-09T03:28:07.949Z,20.30
2018-10-09T03:30:37.669Z,17.17
2018-10-09T03:33:07.497Z,20.07
2018-10-09T03:35:37.230Z,22.40
2018-10-09T03:38:07.143Z,20.83
2018-10-09T03:40:37.017Z,22.10
2018-10-09T03:43:06.872Z,21.20
2018-10-09T03:45:36.604Z,20.43
2018-10-09T03:48:07.112Z,21.23
2018-10-09T03:50:36.887Z,23.53
2018-10-09T03:53:07.548Z,23.97
2018-10-09T03:55:37.291Z,23.40
2018-10-09T03:58:07.383Z,26.47
2018-10-09T04:00:37.202Z,21.37
2018-10-09T04:03:07.025Z,25.27
2018-10-09T04:05:36.788Z,25.73
2018-10-09T04:08:06.727Z,23.10
2018-10-09T04:10:36.662Z,22.80
2018-10-09T04:13:07.313Z,25.23
2018-10-09T04:15:37.169Z,25.07
2018-10-09T04:18:07.828Z,24.97
2018-10-09T04:20:37.666Z,22.97
2018-10-09T04:23:08.079Z,17.33
2018-10-09T04:25:37.948Z,20.53
2018-10-09T04:28:07.896Z,17.30
2018-10-09T04:30:37.737Z,19.43
2018-10-09T04:33:07.667Z,17.90
2018-10-09T04:35:38.400Z,20.27
2018-10-09T04:38:08.870Z,20.07
2018-10-09T04:40:38.579Z,19.20
2018-10-09T04:43:08.553Z,31.57
2018-10-09T04:45:38.933Z,18.17
2018-10-09T04:48:08.742Z,16.63
2018-10-09T04:50:38.576Z,23.13
2018-10-09T04:53:09.165Z,23.20
2018-10-09T04:55:39.738Z,22.60
2018-10-09T04:58:09.638Z,21.93
2018-10-09T05:00:39.513Z,22.67
2018-10-09T05:03:10.088Z,21.73
2018-10-09T05:05:39.801Z,20.13
2018-10-09T05:08:09.710Z,23.70
2018-10-09T05:10:39.580Z,22.77
2018-10-09T05:13:09.243Z,22.73
2018-10-09T05:15:39.062Z,22.23
2018-10-09T05:18:08.794Z,22.13
2018-10-09T05:20:38.588Z,22.97
2018-10-09T05:23:08.343Z,21.00
2018-10-09T05:25:38.103Z,23.67
2018-10-09T05:28:08.993Z,23.97
2018-10-09T05:30:38.668Z,23.37
2018-10-09T05:33:08.482Z,24.10
2018-10-09T05:35:38.396Z,27.27
2018-10-09T05:38:08.271Z,21.07
2018-10-09T05:40:38.304Z,20.77
2018-10-09T05:43:08.933Z,24.00
2018-10-09T05:45:38.763Z,24.77
2018-10-09T05:48:09.777Z,25.27
2018-10-09T05:50:39.940Z,30.77
2018-10-09T05:53:09.756Z,24.97
2018-10-09T05:55:39.535Z,24.57
2018-10-09T05:58:09.479Z,27.17
2018-10-09T06:00:39.873Z,21.43
2018-10-09T06:03:09.827Z,22.43
2018-10-09T06:05:40.228Z,21.73
2018-10-09T06:08:10.184Z,20.47
2018-10-09T06:10:40.843Z,26.97
2018-10-09T06:13:10.777Z,19.90
2018-10-09T06:15:41.063Z,22.80
2018-10-09T06:18:11.086Z,21.60
2018-10-09T06:20:41.253Z,19.47
2018-10-09T06:23:11.827Z,29.73
2018-10-09T06:25:41.697Z,22.57
2018-10-09T06:28:11.893Z,24.27
2018-10-09T06:30:42.333Z,27.60
2018-10-09T06:33:12.897Z,25.67
2018-10-09T06:35:42.913Z,24.03
2018-10-09T06:38:13.473Z,20.10
2018-10-09T06:40:46.846Z,21.03
2018-10-09T06:43:16.873Z,21.10
2018-10-09T06:45:46.626Z,19.77
2018-10-09T06:48:17.206Z,25.50
2018-10-09T06:50:47.552Z,24.93
2018-10-09T06:53:17.346Z,21.63
2018-10-09T06:55:47.957Z,20.73
2018-10-09T06:58:18.094Z,18.70
2018-10-09T07:00:47.876Z,22.43
2018-10-09T07:03:17.600Z,21.87
2018-10-09T07:05:47.403Z,24.37
2018-10-09T07:08:17.830Z,19.03
2018-10-09T07:10:48.320Z,22.53
2018-10-09T07:13:19.976Z,19.80
2018-10-09T07:15:49.853Z,19.30
2018-10-09T07:18:19.658Z,28.53
2018-10-09T07:20:49.671Z,21.63
2018-10-09T07:23:20.258Z,20.53
2018-10-09T07:25:52.447Z,20.10
2018-10-09T07:28:23.321Z,24.17
2018-10-09T07:30:53.481Z,21.23
2018-10-09T07:33:23.540Z,21.47
2018-10-09T07:35:53.549Z,21.47
2018-10-09T07:38:23.596Z,21.70
2018-10-09T07:40:53.400Z,23.63
2018-10-09T07:43:23.193Z,21.60
2018-10-09T07:45:53.897Z,22.23
2018-10-09T07:48:23.936Z,23.90
2018-10-09T07:50:54.450Z,21.80
2018-10-09T07:53:24.452Z,23.73
2018-10-09T07:55:54.611Z,19.60
2018-10-09T07:58:24.843Z,22.80
2018-10-09T08:00:54.851Z,28.53
2018-10-09T08:03:25.208Z,23.93
2018-10-09T08:05:55.303Z,28.60
2018-10-09T08:08:25.466Z,20.80
2018-10-09T08:10:55.439Z,27.90
2018-10-09T08:13:25.269Z,21.80
2018-10-09T08:15:55.136Z,22.53
2018-10-09T08:18:25.051Z,19.77
2018-10-09T08:20:55.641Z,21.13
2018-10-09T08:23:25.751Z,24.93
2018-10-09T08:25:57.105Z,21.13
2018-10-09T08:28:27.118Z,25.90
2018-10-09T08:30:56.921Z,19.60
2018-10-09T08:33:26.836Z,21.60
2018-10-09T08:35:56.773Z,21.37
2018-10-09T08:38:26.901Z,20.17
2018-10-09T08:40:56.742Z,25.53
2018-10-09T08:43:26.742Z,26.53
2018-10-09T08:45:56.566Z,20.73
2018-10-09T08:48:26.722Z,20.97
2018-10-09T08:50:57.203Z,25.33
2018-10-09T08:53:28.463Z,27.67
2018-10-09T08:55:58.330Z,28.10
2018-10-09T08:58:28.141Z,21.40
2018-10-09T09:00:58.058Z,22.70
2018-10-09T09:03:28.331Z,29.00
2018-10-09T09:05:58.209Z,28.30
2018-10-09T09:08:28.100Z,23.63
2018-10-09T09:10:57.921Z,24.40
2018-10-09T09:13:27.792Z,22.97
2018-10-09T09:15:58.124Z,29.27
2018-10-09T09:18:28.227Z,20.00
2018-10-09T09:20:58.459Z,22.27
2018-10-09T09:23:28.473Z,29.37
2018-10-09T09:25:58.304Z,23.67
2018-10-09T09:28:29.074Z,23.67
2018-10-09T09:30:59.243Z,33.27
2018-10-09T09:33:29.266Z,25.30
2018-10-09T09:35:59.417Z,24.83
2018-10-09T09:38:29.461Z,29.07
2018-10-09T09:41:00.193Z,24.80
2018-10-09T09:43:30.205Z,25.17
2018-10-09T09:46:00.346Z,22.57
2018-10-09T09:48:30.848Z,24.87
2018-10-09T09:51:01.037Z,26.57
2018-10-09T09:53:30.993Z,25.30
2018-10-09T09:56:01.012Z,28.50
2018-10-09T09:58:31.203Z,26.10
2018-10-09T10:01:06.186Z,26.67
2018-10-09T10:03:36.838Z,26.07
2018-10-09T10:06:07.062Z,29.77
2018-10-09T10:08:37.340Z,27.37
2018-10-09T10:11:14.004Z,25.97
2018-10-09T10:13:44.149Z,31.33
2018-10-09T10:16:14.352Z,26.63
2018-10-09T10:18:44.492Z,26.57
2018-10-09T10:21:14.949Z,33.07
2018-10-09T10:23:44.766Z,30.33
2018-10-09T10:26:16.170Z,30.33
2018-10-09T10:28:46.116Z,29.07
2018-10-09T10:31:18.585Z,31.53
2018-10-09T10:33:48.739Z,28.70
2018-10-09T10:36:18.914Z,31.43
2018-10-09T10:38:49.135Z,34.63
2018-10-09T10:41:19.210Z,29.73
2018-10-09T10:43:49.207Z,31.60
2018-10-09T10:46:19.714Z,33.83
2018-10-09T10:48:59.993Z,25.43
2018-10-09T10:51:29.846Z,29.17
2018-10-09T10:53:59.648Z,28.43
2018-10-09T10:56:29.503Z,30.17
2018-10-09T10:58:59.408Z,29.37
2018-10-09T11:01:29.301Z,34.83
2018-10-09T11:03:59.708Z,27.97
2018-10-09T11:06:29.488Z,23.20
2018-10-09T11:08:59.381Z,28.93
2018-10-09T11:11:30.486Z,31.17
2018-10-09T11:14:00.610Z,29.60
2018-10-09T11:16:30.555Z,26.27
2018-10-09T11:19:00.391Z,30.63
2018-10-09T11:21:30.314Z,24.63
2018-10-09T11:24:00.147Z,23.90
2018-10-09T11:26:29.900Z,28.50
2018-10-09T11:29:00.570Z,26.00
2018-10-09T11:31:30.661Z,22.80
2018-10-09T11:34:00.472Z,22.17
2018-10-09T11:36:30.434Z,23.33
2018-10-09T11:39:00.659Z,22.10
2018-10-09T11:41:30.639Z,21.00
2018-10-09T11:44:00.970Z,22.10
2018-10-09T11:46:30.780Z,21.03
2018-10-09T11:49:00.625Z,27.70
2018-10-09T11:51:30.592Z,21.03
2018-10-09T11:54:00.449Z,24.10
2018-10-09T11:56:30.301Z,22.20
2018-10-09T11:59:00.137Z,22.63
2018-10-09T12:01:30.015Z,22.23
2018-10-09T12:03:59.904Z,27.70
2018-10-09T12:06:29.806Z,25.67
2018-10-09T12:08:59.651Z,24.10
2018-10-09T12:11:29.630Z,25.83
2018-10-09T12:13:59.549Z,21.80
2018-10-09T12:16:29.425Z,22.90
2018-10-09T12:18:59.241Z,25.60
2018-10-09T12:21:29.294Z,28.50
2018-10-09T12:23:59.225Z,22.27
2018-10-09T12:26:29.267Z,27.20
2018-10-09T12:28:59.290Z,22.33
2018-10-09T12:31:29.235Z,25.57
2018-10-09T12:33:59.978Z,28.67
2018-10-09T12:36:29.846Z,26.00
2018-10-09T12:39:00.640Z,23.57
2018-10-09T12:41:30.350Z,27.33
2018-10-09T12:44:00.401Z,27.67
2018-10-09T12:46:31.206Z,24.97
2018-10-09T12:49:00.972Z,24.70
2018-10-09T12:51:30.878Z,25.47
2018-10-09T12:54:01.109Z,27.60
2018-10-09T12:56:31.048Z,27.63
2018-10-09T12:59:01.159Z,25.17
2018-10-09T13:01:31.140Z,25.50
2018-10-09T13:04:01.078Z,31.40
2018-10-09T13:06:31.738Z,28.57
2018-10-09T13:09:01.613Z,27.13
2018-10-09T13:11:31.475Z,31.57
2018-10-09T13:14:01.395Z,28.90
2018-10-09T13:16:31.303Z,30.67
2018-10-09T13:19:01.332Z,28.57
2018-10-09T13:21:31.383Z,27.87
2018-10-09T13:24:01.056Z,30.00
2018-10-09T13:26:30.870Z,31.20
2018-10-09T13:29:00.617Z,29.93
2018-10-09T13:31:30.782Z,29.10
2018-10-09T13:34:00.683Z,32.30
2018-10-09T13:36:30.548Z,29.83
2018-10-09T13:39:00.474Z,31.27
2018-10-09T13:41:30.312Z,32.57
2018-10-09T13:44:00.811Z,34.60
2018-10-09T13:46:30.634Z,30.73
2018-10-09T13:49:00.560Z,32.30
2018-10-09T13:51:30.344Z,32.97
2018-10-09T13:54:00.074Z,31.77
2018-10-09T13:56:29.981Z,30.33
2018-10-09T13:58:59.934Z,33.43
2018-10-09T14:01:29.763Z,29.67
2018-10-09T14:03:59.640Z,29.63
2018-10-09T14:06:29.510Z,31.47
2018-10-09T14:08:59.346Z,34.73
2018-10-09T17:05:26.078Z,27.83
2018-10-09T17:07:55.973Z,31.37
2018-10-09T17:10:25.857Z,32.83
2018-10-09T17:12:55.804Z,28.20
2018-10-09T17:15:25.715Z,27.80
2018-10-09T17:17:55.677Z,29.40
2018-10-09T17:20:25.492Z,29.17
2018-10-09T17:22:55.217Z,30.70
2018-10-09T17:25:25.066Z,26.37
2018-10-09T17:27:54.888Z,29.33
2018-10-09T17:30:24.759Z,29.07
2018-10-09T17:32:54.565Z,30.03
2018-10-09T17:35:32.187Z,30.77
2018-10-09T17:38:02.270Z,26.77
2018-10-09T17:40:32.160Z,29.87
2018-10-09T17:43:02.522Z,24.70
2018-10-09T17:45:32.552Z,25.00
2018-10-09T17:48:02.933Z,28.70
2018-10-09T17:50:33.332Z,28.03
2018-10-09T17:53:03.935Z,33.13
2018-10-09T17:55:34.018Z,27.90
2018-10-09T17:58:03.902Z,24.90
2018-10-09T18:00:33.928Z,30.13
2018-10-09T18:03:04.041Z,75.67
2018-10-09T18:05:34.440Z,31.57
2018-10-09T18:08:04.491Z,38.87
2018-10-09T18:10:34.569Z,33.97
2018-10-09T18:13:04.978Z,30.30
2018-10-09T18:15:36.021Z,28.63
2018-10-09T18:18:07.047Z,30.63
2018-10-09T18:20:37.596Z,27.77
2018-10-09T18:23:07.880Z,29.93
2018-10-09T18:25:37.978Z,33.67
2018-10-09T18:28:08.653Z,31.93
2018-10-09T18:30:38.713Z,29.97
2018-10-09T18:33:08.862Z,33.87
2018-10-09T18:35:39.069Z,29.47
2018-10-09T18:38:09.200Z,32.17
2018-10-09T18:40:39.406Z,34.77
2018-10-09T18:43:09.487Z,29.60
2018-10-09T18:45:39.738Z,32.00
2018-10-09T18:48:10.370Z,32.23
2018-10-09T18:50:41.019Z,30.40
2018-10-09T18:53:11.344Z,36.13
2018-10-09T18:55:41.948Z,35.63
2018-10-09T18:58:12.435Z,46.57
2018-10-09T19:03:23.727Z,45.20
2018-10-09T19:05:53.964Z,43.13
2018-10-09T19:08:24.178Z,41.63
2018-10-09T19:10:54.680Z,38.63
2018-10-09T19:13:24.811Z,36.00
2018-10-09T19:15:55.035Z,37.50
2018-10-09T19:18:24.977Z,31.33
2018-10-09T19:20:55.128Z,33.67
2018-10-09T19:23:25.219Z,32.70
2018-10-09T19:25:55.284Z,33.03
2018-10-09T19:28:25.694Z,32.23
2018-10-09T19:30:56.194Z,29.33
2018-10-09T19:33:26.492Z,27.20
2018-10-09T19:35:57.333Z,29.50
2018-10-09T19:38:27.893Z,30.30
2018-10-09T19:40:58.515Z,28.90
2018-10-09T19:43:29.019Z,31.87
2018-10-09T19:45:59.619Z,32.33
2018-10-09T19:48:30.758Z,33.03
2018-10-09T19:51:01.149Z,29.73
2018-10-09T19:53:31.354Z,30.30
2018-10-09T19:56:01.953Z,28.57
2018-10-09T19:58:32.136Z,29.93
2018-10-09T20:01:02.242Z,28.67
2018-10-09T20:03:32.428Z,29.43
2018-10-09T20:06:03.352Z,33.73
2018-10-09T20:08:33.536Z,27.97
2018-10-09T20:11:03.527Z,30.00
2018-10-09T20:13:33.566Z,30.33
2018-10-09T20:16:03.680Z,66.90
2018-10-09T20:18:34.012Z,50.07
2018-10-09T20:21:04.404Z,33.20
2018-10-09T20:23:34.723Z,34.37
2018-10-09T20:26:04.851Z,33.93
2018-10-09T20:28:35.219Z,28.93
2018-10-09T20:31:05.516Z,31.70
2018-10-09T20:33:35.386Z,28.90
2018-10-09T20:36:05.508Z,42.60
2018-10-09T20:38:35.980Z,35.13
2018-10-09T20:41:09.064Z,39.50
2018-10-09T20:43:39.262Z,31.17
2018-10-09T20:46:09.545Z,31.97
2018-10-09T20:48:39.729Z,29.90
2018-10-09T20:51:09.756Z,30.67
2018-10-09T20:53:40.026Z,34.03
2018-10-09T20:56:10.098Z,31.27
2018-10-09T20:58:40.242Z,34.10
2018-10-09T21:01:10.448Z,37.07
2018-10-09T21:03:40.651Z,32.70
2018-10-09T21:06:10.843Z,30.97
2018-10-09T21:08:40.863Z,37.40
2018-10-09T21:11:11.205Z,38.80
2018-10-09T21:13:41.175Z,39.70
2018-10-09T21:16:11.559Z,38.87
2018-10-09T21:18:41.531Z,41.20
2018-10-09T21:21:11.557Z,42.97
2018-10-09T21:23:41.708Z,43.83
2018-10-09T21:26:12.324Z,48.77
2018-10-09T21:28:42.745Z,49.60
2018-10-09T21:31:12.915Z,40.60
2018-10-09T21:33:43.108Z,40.37
2018-10-09T21:36:13.283Z,39.57
2018-10-09T21:38:43.224Z,44.90
2018-10-09T21:41:13.253Z,41.63
2018-10-09T21:43:43.210Z,44.23
2018-10-09T21:46:13.350Z,43.03
2018-10-09T21:48:43.347Z,40.03
2018-10-09T21:51:13.411Z,36.40
2018-10-09T21:53:43.532Z,40.97
2018-10-09T21:56:13.640Z,39.43
2018-10-09T21:58:43.541Z,41.37
2018-10-09T22:01:14.018Z,42.07
2018-10-09T22:03:43.990Z,40.30
2018-10-09T22:06:14.800Z,38.37
2018-10-09T22:08:44.787Z,39.27
2018-10-09T22:11:15.829Z,43.10
2018-10-09T22:13:45.647Z,40.07
2018-10-09T22:16:16.032Z,39.67
2018-10-09T22:18:46.117Z,39.97
2018-10-09T22:21:16.458Z,37.30
2018-10-09T22:23:46.405Z,39.03
2018-10-09T22:26:16.564Z,41.23
2018-10-09T22:28:46.537Z,40.93
2018-10-09T22:31:16.532Z,37.03
2018-10-09T22:33:46.498Z,38.27
2018-10-09T22:36:16.569Z,36.83
2018-10-09T22:38:46.583Z,37.73
2018-10-09T22:41:17.924Z,38.20
2018-10-09T22:43:49.102Z,38.73
2018-10-09T22:46:19.344Z,37.37
2018-10-09T22:48:49.284Z,38.20
2018-10-09T22:51:19.589Z,32.53
2018-10-09T22:53:49.680Z,36.73
2018-10-09T22:56:19.545Z,36.40
2018-10-09T22:58:49.443Z,36.80
2018-10-09T23:01:19.680Z,36.33
2018-10-09T23:03:49.585Z,35.70
2018-10-09T23:06:19.674Z,37.87
2018-10-09T23:08:49.772Z,38.57
2018-10-09T23:11:20.076Z,37.70
2018-10-09T23:13:50.005Z,42.47
2018-10-09T23:16:20.096Z,41.30
2018-10-09T23:18:50.045Z,39.13
2018-10-09T23:21:20.273Z,39.00
2018-10-09T23:23:50.029Z,43.47
2018-10-09T23:26:20.234Z,38.67
2018-10-09T23:28:50.139Z,40.67
2018-10-09T23:31:20.661Z,41.03
2018-10-09T23:33:50.541Z,37.20
2018-10-09T23:36:21.181Z,46.10
2018-10-09T23:38:51.190Z,40.47
2018-10-09T23:41:22.012Z,49.87
2018-10-09T23:43:51.881Z,44.20
2018-10-09T23:46:21.986Z,40.50
2018-10-09T23:48:51.775Z,45.90
2018-10-09T23:51:21.623Z,48.40
2018-10-09T23:53:51.376Z,55.27
2018-10-09T23:56:21.260Z,47.30
2018-10-09T23:58:50.964Z,47.80
